KGCY/GCY METAR and TAF weather

Enter ICAO airport designator
Station Type Date Time Source
KGCY METAR 2020/01/20 19:00 UTC NOAA

KGCY 201900Z AUTO VRB06KT 10SM BKN030 OVC034 M05/M12 A3037 RMK A01


Station Type Date Time Source
KGCY Decoded METAR 2020/01/20 19:00 UTC NOAA

Station name not available
Jan 20, 2020 - 02:00 PM EST / 2020.01.20 1900 UTC
Wind: Variable at 7 MPH (6 KT):0
Visibility: 10 mile(s):0
Sky conditions: overcast
Temperature: 23 F (-5 C)
Windchill: 14 F (-10 C):1
Dew Point: 10 F (-12 C)
Relative Humidity: 57%
Pressure (altimeter): 30.37 in. Hg (1028 hPa)
ob: KGCY 201900Z AUTO VRB06KT 10SM BKN030 OVC034 M05/M12 A3037 RMK A01
cycle: 19

Station Type Date Time Source
KGCY TAF UTC NOAA

Error!

Example: see airport list